Time;durP1;ratioP1;P1;durP2;ratioP2;P2;SDS_P1;SDS_P2;PMS_P1;PMS_P2;Temp;Humidity;BMP_temperature;BMP_pressure;BME280_temperature;BME280_humidity;BME280_pressure;Samples;Min_cycle;Max_cycle;Signal;HPM_P1;HPM_P2
2024/01/19 00:01:13;;;;;;;73.93;49.77;;;;;;;6.21;100.00;95922.66;5085648;28;20300;-63
2024/01/19 00:03:40;;;;;;;73.80;49.63;;;;;;;6.15;100.00;95919.53;5086759;28;20206;-64
2024/01/19 00:06:07;;;;;;;67.23;46.03;;;;;;;6.26;100.00;95925.84;5084969;28;20234;-64
2024/01/19 00:08:34;;;;;;;69.03;47.00;;;;;;;6.19;100.00;95932.16;5086857;28;20222;-64
2024/01/19 00:11:01;;;;;;;67.60;47.17;;;;;;;6.14;100.00;95931.53;5085946;28;20196;-62
2024/01/19 00:13:28;;;;;;;64.30;43.87;;;;;;;6.11;100.00;95930.84;5086300;28;20257;-63
2024/01/19 00:15:55;;;;;;;60.73;43.27;;;;;;;5.97;100.00;95928.91;5086614;28;20265;-63
2024/01/19 00:18:25;;;;;;;59.87;40.50;;;;;;;5.91;100.00;95928.34;5084984;28;20604;-63
2024/01/19 00:20:52;;;;;;;62.10;43.13;;;;;;;5.79;100.00;95939.97;5086535;28;20262;-61
2024/01/19 00:23:19;;;;;;;54.20;36.40;;;;;;;6.00;100.00;95921.06;5084668;28;20743;-62
2024/01/19 00:25:46;;;;;;;53.67;37.70;;;;;;;6.05;100.00;95929.41;5086412;28;20211;-61
2024/01/19 00:28:14;;;;;;;58.60;38.43;;;;;;;6.01;100.00;95920.16;5067137;28;20194;-64
2024/01/19 00:30:41;;;;;;;49.70;34.97;;;;;;;6.37;100.00;95921.00;5085988;28;20198;-61
2024/01/19 00:33:07;;;;;;;45.90;32.43;;;;;;;6.52;100.00;95943.44;5086372;28;20198;-63
2024/01/19 00:35:35;;;;;;;45.57;28.97;;;;;;;6.40;100.00;95876.34;5084926;28;20318;-62
2024/01/19 00:38:03;;;;;;;44.80;32.20;;;;;;;6.79;100.00;95927.56;5086211;28;20211;-62
2024/01/19 00:40:30;;;;;;;37.93;24.90;;;;;;;7.09;100.00;95931.25;5084709;28;20187;-63
2024/01/19 00:42:57;;;;;;;34.33;24.27;;;;;;;7.05;100.00;95878.22;5086313;28;20185;-63
2024/01/19 00:45:24;;;;;;;35.13;26.07;;;;;;;7.53;100.00;95932.38;5087364;28;20263;-64
2024/01/19 00:47:51;;;;;;;29.60;21.67;;;;;;;7.74;100.00;95926.13;5089846;28;20197;-63
2024/01/19 00:50:18;;;;;;;28.63;19.93;;;;;;;7.93;100.00;95929.38;5090129;28;21071;-63
2024/01/19 00:52:45;;;;;;;28.50;19.73;;;;;;;8.01;100.00;95927.25;5088851;28;20197;-63
2024/01/19 00:55:12;;;;;;;26.60;18.13;;;;;;;8.16;100.00;95931.56;5090458;28;20273;-64
2024/01/19 00:57:39;;;;;;;21.87;14.93;;;;;;;8.26;100.00;95910.47;5088610;28;20665;-63
2024/01/19 01:00:06;;;;;;;20.97;14.73;;;;;;;8.37;100.00;95915.84;5090017;28;20621;-63
2024/01/19 01:02:33;;;;;;;21.80;14.57;;;;;;;8.29;100.00;95921.44;5088587;28;20180;-62
2024/01/19 01:05:00;;;;;;;16.27;12.60;;;;;;;8.50;100.00;95916.84;5089439;28;20278;-62
2024/01/19 01:07:28;;;;;;;15.83;11.27;;;;;;;8.72;100.00;95917.31;5089322;28;20189;-62
2024/01/19 01:09:55;;;;;;;14.93;10.77;;;;;;;8.89;100.00;95917.19;5088722;28;20211;-63
2024/01/19 01:12:22;;;;;;;14.23;11.10;;;;;;;8.82;100.00;95900.41;5089886;28;20718;-62
2024/01/19 01:14:49;;;;;;;11.73;7.63;;;;;;;8.97;100.00;95909.84;5088330;28;20539;-63
2024/01/19 01:17:16;;;;;;;11.60;9.33;;;;;;;9.03;100.00;95915.47;5089811;28;20292;-63
2024/01/19 01:19:43;;;;;;;13.37;8.10;;;;;;;9.11;100.00;95907.28;5088169;28;20710;-62
2024/01/19 01:22:12;;;;;;;11.43;8.63;;;;;;;9.04;100.00;95911.16;5071398;28;20197;-62
2024/01/19 01:24:40;;;;;;;11.23;8.43;;;;;;;8.87;100.00;95893.22;5088805;28;20716;-63
2024/01/19 01:27:07;;;;;;;7.53;6.47;;;;;;;9.10;100.00;95909.97;5088371;28;20631;-63
2024/01/19 01:29:34;;;;;;;9.10;6.57;;;;;;;9.24;100.00;95909.97;5089416;28;20189;-62
2024/01/19 01:32:01;;;;;;;8.27;7.03;;;;;;;9.27;100.00;95905.50;5087989;28;20219;-62
2024/01/19 01:34:28;;;;;;;10.67;7.07;;;;;;;9.28;100.00;95912.31;5089490;28;20585;-62
2024/01/19 01:36:55;;;;;;;8.57;5.27;;;;;;;9.30;100.00;95907.03;5087576;28;20192;-62
2024/01/19 01:39:22;;;;;;;8.20;5.97;;;;;;;9.18;100.00;95906.00;5089119;28;20204;-62
2024/01/19 01:41:49;;;;;;;7.07;5.30;;;;;;;9.15;100.00;95902.78;5088426;28;20196;-62
2024/01/19 01:44:16;;;;;;;6.87;5.30;;;;;;;9.34;100.00;95887.84;5088500;28;20702;-62
2024/01/19 01:46:43;;;;;;;8.03;4.83;;;;;;;9.35;100.00;95898.13;5088951;28;20290;-62
2024/01/19 01:49:15;;;;;;;6.57;4.60;;;;;;;9.43;100.00;95889.91;5087487;28;20197;-64
2024/01/19 01:51:43;;;;;;;5.00;4.30;;;;;;;9.53;100.00;95894.44;5088794;28;20200;-63
2024/01/19 01:54:10;;;;;;;5.33;4.83;;;;;;;9.41;100.00;95879.66;5087395;28;20277;-63
2024/01/19 01:56:40;;;;;;;7.30;4.80;;;;;;;9.34;100.00;95880.94;5088498;28;20600;-63
2024/01/19 01:59:10;;;;;;;6.50;4.67;;;;;;;9.35;100.00;95898.13;5088167;28;20218;-63
2024/01/19 02:01:37;;;;;;;5.70;4.47;;;;;;;9.16;100.00;95904.44;5088219;28;20526;-65
2024/01/19 02:04:09;;;;;;;6.97;5.07;;;;;;;9.03;100.00;95900.00;5089101;28;20184;-63
2024/01/19 02:06:37;;;;;;;7.33;5.63;;;;;;;8.91;100.00;95894.69;5087255;28;20299;-62
2024/01/19 02:09:07;;;;;;;5.87;4.77;;;;;;;8.89;100.00;95891.38;5089005;28;20567;-62
2024/01/19 02:11:34;;;;;;;5.93;4.90;;;;;;;8.85;100.00;95874.41;5087520;28;20583;-64
2024/01/19 02:14:05;;;;;;;8.73;4.77;;;;;;;8.88;100.00;95884.56;5070371;28;20207;-65
2024/01/19 02:16:33;;;;;;;7.13;5.73;;;;;;;8.90;100.00;95882.72;5087988;28;20591;-63
2024/01/19 02:19:20;;;;;;;8.37;5.87;;;;;;;8.80;100.00;95871.22;5071943;28;20741;-64
2024/01/19 02:21:47;;;;;;;8.40;6.03;;;;;;;8.81;100.00;95888.41;5088421;28;20261;-62
2024/01/19 02:24:15;;;;;;;9.50;6.00;;;;;;;8.71;100.00;95879.53;5086713;28;20240;-63
2024/01/19 02:26:42;;;;;;;6.77;5.53;;;;;;;8.69;100.00;95884.78;5088221;28;20738;-63
2024/01/19 02:29:09;;;;;;;9.87;6.90;;;;;;;8.80;100.00;95900.47;5087362;28;20283;-62
2024/01/19 02:31:36;;;;;;;13.33;9.97;;;;;;;8.78;100.00;95896.31;5069947;28;20193;-65
2024/01/19 02:34:03;;;;;;;12.50;8.60;;;;;;;8.69;100.00;95883.94;5069807;28;20566;-64
2024/01/19 02:36:30;;;;;;;9.47;8.03;;;;;;;8.75;100.00;95894.75;5086767;28;20192;-63
2024/01/19 02:38:57;;;;;;;9.03;7.47;;;;;;;8.77;100.00;95892.91;5070157;28;20333;-63
2024/01/19 02:41:24;;;;;;;7.83;6.70;;;;;;;8.62;100.00;95888.63;5086747;28;20193;-61
2024/01/19 02:43:51;;;;;;;6.50;5.40;;;;;;;8.64;100.00;95891.09;5088048;28;20247;-63
2024/01/19 02:46:21;;;;;;;4.67;4.20;;;;;;;8.66;100.00;95891.84;5086636;28;20224;-64
2024/01/19 02:48:48;;;;;;;7.33;5.60;;;;;;;8.57;100.00;95884.63;5087829;28;20197;-63
2024/01/19 02:51:15;;;;;;;6.00;4.70;;;;;;;8.80;100.00;95909.94;5069622;28;20589;-65
2024/01/19 02:53:42;;;;;;;7.03;5.13;;;;;;;8.62;100.00;95892.94;5086854;28;20243;-63
2024/01/19 02:56:09;;;;;;;6.90;5.37;;;;;;;8.67;100.00;95916.75;5087599;28;20683;-63
2024/01/19 02:58:36;;;;;;;7.07;5.30;;;;;;;8.65;100.00;95913.41;5086371;28;20204;-63
2024/01/19 03:01:03;;;;;;;7.37;5.77;;;;;;;8.60;100.00;95913.66;5087906;28;20196;-62
2024/01/19 03:03:30;;;;;;;10.17;5.93;;;;;;;8.33;100.00;95901.47;5086292;28;20672;-62
2024/01/19 03:05:57;;;;;;;7.27;6.30;;;;;;;8.29;100.00;95899.97;5087562;28;20228;-61
2024/01/19 03:08:24;;;;;;;9.40;6.23;;;;;;;8.20;100.00;95902.09;5086354;28;20207;-62
2024/01/19 03:10:51;;;;;;;7.23;6.17;;;;;;;8.35;100.00;95915.09;5086675;28;20229;-63
2024/01/19 03:13:18;;;;;;;8.37;6.53;;;;;;;8.39;100.00;95912.28;5087718;28;20211;-62
2024/01/19 03:15:45;;;;;;;8.47;7.03;;;;;;;8.46;100.00;95907.63;5086094;28;20682;-63
2024/01/19 03:18:12;;;;;;;11.13;7.57;;;;;;;8.46;100.00;95907.63;5087561;28;20276;-63
2024/01/19 03:20:39;;;;;;;7.57;6.37;;;;;;;8.43;100.00;95907.81;5085643;28;20189;-61
2024/01/19 03:23:08;;;;;;;8.73;7.27;;;;;;;8.30;100.00;95922.28;5087458;28;20382;-63
2024/01/19 03:25:35;;;;;;;10.93;7.63;;;;;;;8.21;100.00;95919.25;5086484;28;20703;-64
2024/01/19 03:28:02;;;;;;;9.67;7.60;;;;;;;8.24;100.00;95913.09;5086306;28;20197;-63
2024/01/19 03:30:29;;;;;;;10.83;7.47;;;;;;;8.13;100.00;95918.00;5087067;28;20575;-64
2024/01/19 03:32:56;;;;;;;11.97;8.37;;;;;;;8.14;100.00;95923.06;5086013;28;20509;-63
2024/01/19 03:35:25;;;;;;;11.67;8.40;;;;;;;8.07;100.00;95916.59;5087145;28;20866;-63
2024/01/19 03:37:52;;;;;;;10.87;7.77;;;;;;;8.04;100.00;95932.22;5085423;28;20191;-64
2024/01/19 03:40:19;;;;;;;10.23;8.20;;;;;;;7.97;100.00;95936.06;5087232;28;20204;-63
2024/01/19 03:42:46;;;;;;;16.77;11.47;;;;;;;7.94;100.00;95931.03;5086508;28;20200;-62
2024/01/19 03:45:13;;;;;;;17.33;13.20;;;;;;;7.95;100.00;95930.16;5086620;28;20204;-63
2024/01/19 03:47:41;;;;;;;14.00;10.57;;;;;;;7.89;100.00;95927.06;5086956;28;20678;-64
2024/01/19 03:50:08;;;;;;;13.20;10.40;;;;;;;7.89;100.00;95937.38;5085543;28;20184;-63
2024/01/19 03:52:37;;;;;;;13.23;9.67;;;;;;;7.77;100.00;95938.81;5086899;28;20246;-63
2024/01/19 03:55:05;;;;;;;13.23;10.60;;;;;;;7.70;100.00;95947.81;5067181;28;20220;-63
2024/01/19 03:57:32;;;;;;;14.10;10.53;;;;;;;7.56;100.00;95914.19;5068672;28;20212;-62
2024/01/19 03:59:59;;;;;;;15.33;11.03;;;;;;;7.73;100.00;95947.63;5085628;28;20585;-63
2024/01/19 04:02:28;;;;;;;17.30;12.60;;;;;;;7.66;100.00;95942.88;5068178;28;20277;-63
2024/01/19 04:04:55;;;;;;;15.17;11.87;;;;;;;7.75;100.00;95953.53;5068632;28;20199;-64
2024/01/19 04:07:22;;;;;;;16.77;12.50;;;;;;;7.70;100.00;95940.06;5084941;28;20599;-62
2024/01/19 04:09:49;;;;;;;16.07;12.77;;;;;;;7.82;100.00;95948.91;5086821;28;20211;-63
2024/01/19 04:12:17;;;;;;;20.50;13.63;;;;;;;7.82;100.00;95956.63;5085099;28;20667;-63
2024/01/19 04:14:45;;;;;;;17.53;13.90;;;;;;;7.74;100.00;95949.31;5086468;28;20291;-63
2024/01/19 04:17:12;;;;;;;19.53;13.23;;;;;;;7.77;100.00;95964.59;5083530;28;20768;-63
2024/01/19 04:19:40;;;;;;;23.47;17.63;;;;;;;7.65;100.00;95943.78;5086017;28;20208;-63
2024/01/19 04:22:07;;;;;;;19.70;14.90;;;;;;;7.72;100.00;95976.06;5067876;28;20622;-64
2024/01/19 04:24:34;;;;;;;21.83;15.77;;;;;;;7.59;100.00;95978.44;5066853;28;20220;-63
2024/01/19 04:27:01;;;;;;;23.77;16.17;;;;;;;7.46;100.00;95974.81;5086029;28;20228;-63
2024/01/19 04:29:28;;;;;;;20.50;15.37;;;;;;;7.33;100.00;95966.88;5084746;28;20193;-62
2024/01/19 04:31:56;;;;;;;20.00;15.00;;;;;;;7.40;100.00;95977.69;5086002;28;20588;-63
2024/01/19 04:34:23;;;;;;;19.47;14.97;;;;;;;7.31;100.00;95989.31;5083062;28;20200;-62
2024/01/19 04:36:50;;;;;;;21.80;17.00;;;;;;;7.31;100.00;95983.31;5086168;28;20230;-62
2024/01/19 04:39:17;;;;;;;22.00;16.10;;;;;;;7.19;100.00;95976.22;5084090;28;20668;-63
2024/01/19 04:41:44;;;;;;;21.50;15.73;;;;;;;7.27;100.00;95968.94;5084888;28;20203;-61
2024/01/19 04:44:11;;;;;;;22.67;16.13;;;;;;;7.23;100.00;95981.09;5067801;28;20192;-64
2024/01/19 04:46:38;;;;;;;24.10;16.87;;;;;;;7.31;100.00;95983.31;5084005;28;20243;-63
2024/01/19 04:49:08;;;;;;;19.30;14.10;;;;;;;7.27;100.00;95974.88;5065701;28;20525;-65
2024/01/19 04:51:36;;;;;;;21.50;15.13;;;;;;;7.39;100.00;95979.44;5064129;28;20185;-61
2024/01/19 04:54:03;;;;;;;25.37;16.23;;;;;;;7.28;100.00;95986.88;5065691;28;20185;-62
2024/01/19 04:56:30;;;;;;;40.60;28.40;;;;;;;7.31;100.00;95985.88;5065162;28;20268;-61
2024/01/19 04:58:57;;;;;;;35.57;26.50;;;;;;;7.22;100.00;95981.19;5064669;28;20664;-61
2024/01/19 05:01:24;;;;;;;25.53;19.67;;;;;;;7.07;100.00;95980.19;5047889;28;20655;-62
2024/01/19 05:03:51;;;;;;;22.07;16.50;;;;;;;6.96;100.00;95966.19;5045711;28;20270;-61
2024/01/19 05:06:18;;;;;;;22.13;16.30;;;;;;;7.05;100.00;95981.16;5065683;28;20271;-62
2024/01/19 05:08:46;;;;;;;21.50;15.80;;;;;;;6.97;100.00;95980.72;5064269;28;20582;-63
2024/01/19 05:11:14;;;;;;;20.60;16.20;;;;;;;7.03;100.00;95990.72;5065521;28;20207;-62
2024/01/19 05:13:41;;;;;;;23.17;16.73;;;;;;;6.97;100.00;95996.16;5047074;28;20631;-63
2024/01/19 05:16:09;;;;;;;25.57;17.63;;;;;;;6.93;100.00;95989.50;5064630;28;20209;-63
2024/01/19 05:18:36;;;;;;;24.10;17.70;;;;;;;6.85;100.00;95987.28;5065670;28;20200;-64
2024/01/19 05:21:04;;;;;;;27.70;21.60;;;;;;;6.91;100.00;95991.31;5063922;28;20200;-63
2024/01/19 05:23:31;;;;;;;31.60;23.17;;;;;;;6.86;100.00;95994.09;5065428;28;20221;-63
2024/01/19 05:25:58;;;;;;;38.20;26.03;;;;;;;6.87;100.00;96000.09;5064049;28;20739;-63
2024/01/19 05:28:25;;;;;;;41.43;27.90;;;;;;;6.81;100.00;96008.09;5065570;28;20691;-64
2024/01/19 05:30:52;;;;;;;35.07;24.83;;;;;;;6.69;100.00;96011.25;5047660;28;20269;-63
2024/01/19 05:33:19;;;;;;;35.23;25.07;;;;;;;6.69;100.00;96011.25;5068302;28;20246;-62
2024/01/19 05:35:46;;;;;;;38.30;28.47;;;;;;;6.40;100.00;96005.72;5069022;28;20196;-62
2024/01/19 05:38:13;;;;;;;55.47;35.97;;;;;;;6.42;100.00;96003.94;5049580;28;20196;-62
2024/01/19 05:40:40;;;;;;;44.90;30.83;;;;;;;6.36;100.00;96014.50;5068933;28;20851;-64
2024/01/19 05:43:07;;;;;;;45.63;31.33;;;;;;;6.18;100.00;96007.59;5067110;28;20587;-62
2024/01/19 05:45:34;;;;;;;42.13;29.43;;;;;;;6.24;100.00;96001.34;5068347;28;20328;-63
2024/01/19 05:48:01;;;;;;;29.23;22.67;;;;;;;6.28;100.00;96013.16;5066798;28;20703;-64
2024/01/19 05:50:34;;;;;;;30.93;22.80;;;;;;;6.35;100.00;96010.25;5068088;28;20228;-62
2024/01/19 05:53:03;;;;;;;37.23;26.83;;;;;;;6.23;100.00;96010.81;5068268;28;20217;-61
2024/01/19 05:55:30;;;;;;;33.03;23.30;;;;;;;6.36;100.00;96018.78;5049269;28;20192;-61
2024/01/19 05:57:57;;;;;;;35.07;24.97;;;;;;;6.49;100.00;96020.72;5067999;28;20661;-63
2024/01/19 06:00:24;;;;;;;36.40;25.70;;;;;;;6.50;100.00;96035.25;5066585;28;20211;-63
2024/01/19 06:02:51;;;;;;;34.37;26.37;;;;;;;6.48;100.00;96034.50;5050285;28;20599;-63
2024/01/19 06:05:18;;;;;;;31.77;24.00;;;;;;;6.50;100.00;96042.13;5067352;28;20205;-62
2024/01/19 06:07:45;;;;;;;38.63;25.67;;;;;;;6.49;100.00;96033.56;5068389;28;20233;-62
2024/01/19 06:10:12;;;;;;;34.03;23.00;;;;;;;6.42;100.00;96029.63;5067195;28;20189;-63
2024/01/19 06:12:39;;;;;;;35.17;25.60;;;;;;;6.57;100.00;96039.19;5067372;28;20213;-66
2024/01/19 06:15:06;;;;;;;36.40;28.43;;;;;;;6.52;100.00;96043.75;5068363;28;20573;-65
2024/01/19 06:17:33;;;;;;;38.73;28.23;;;;;;;6.65;100.00;96041.44;5077779;28;20200;-62
2024/01/19 06:20:00;;;;;;;43.37;31.20;;;;;;;6.52;100.00;96042.91;5088601;28;20239;-63
2024/01/19 06:22:27;;;;;;;33.33;25.90;;;;;;;6.50;100.00;96058.41;5086308;28;20277;-62
2024/01/19 06:24:54;;;;;;;44.30;29.60;;;;;;;6.35;100.00;96053.94;5088337;28;20621;-62
2024/01/19 06:27:21;;;;;;;39.10;27.70;;;;;;;6.30;100.00;96066.19;5087277;28;20285;-62
2024/01/19 06:29:48;;;;;;;37.27;25.57;;;;;;;6.29;100.00;96064.50;5069832;28;20203;-65
2024/01/19 06:32:16;;;;;;;34.40;22.47;;;;;;;6.44;100.00;96057.84;5069919;28;20200;-64
2024/01/19 06:34:44;;;;;;;33.23;23.80;;;;;;;6.54;100.00;96054.78;5086760;28;20249;-63
2024/01/19 06:37:11;;;;;;;28.83;21.30;;;;;;;6.67;100.00;96064.50;5088047;28;20187;-63
2024/01/19 06:39:38;;;;;;;22.83;16.80;;;;;;;6.75;100.00;96073.53;5086747;28;20518;-65
2024/01/19 06:42:05;;;;;;;20.60;16.43;;;;;;;6.85;100.00;96073.94;5087960;28;20834;-63
2024/01/19 06:44:32;;;;;;;22.10;17.07;;;;;;;6.87;100.00;96078.13;5086482;28;20249;-67
2024/01/19 06:46:59;;;;;;;21.17;16.87;;;;;;;7.00;100.00;96078.38;5087764;28;20314;-66
2024/01/19 06:49:27;;;;;;;21.13;17.83;;;;;;;7.11;100.00;96083.88;5087204;28;20197;-63
2024/01/19 06:51:54;;;;;;;19.87;15.60;;;;;;;7.10;100.00;96093.31;5086444;28;20237;-65
2024/01/19 06:54:21;;;;;;;22.53;17.03;;;;;;;7.32;100.00;96091.38;5087247;28;20194;-62
2024/01/19 06:56:48;;;;;;;29.23;19.20;;;;;;;7.27;100.00;96088.19;5085447;28;20207;-63
2024/01/19 06:59:15;;;;;;;27.53;20.83;;;;;;;7.46;100.00;96087.31;5087389;28;20526;-62
2024/01/19 07:01:42;;;;;;;23.97;18.33;;;;;;;7.41;100.00;96077.25;5085891;28;20208;-62
2024/01/19 07:04:09;;;;;;;24.37;19.13;;;;;;;7.37;100.00;96079.13;5087438;28;20588;-65
2024/01/19 07:06:36;;;;;;;24.70;16.73;;;;;;;7.24;100.00;96067.75;5086579;28;20330;-62
2024/01/19 07:09:04;;;;;;;25.07;17.33;;;;;;;7.25;100.00;96053.16;5086282;28;20197;-63
2024/01/19 07:11:31;;;;;;;33.13;20.80;;;;;;;7.53;100.00;96079.22;5087045;28;20257;-63
2024/01/19 07:13:58;;;;;;;35.17;23.20;;;;;;;7.65;100.00;96070.03;5085393;28;20683;-63
2024/01/19 07:16:25;;;;;;;28.07;19.90;;;;;;;7.70;100.00;96092.09;5086857;28;20216;-61
2024/01/19 07:18:52;;;;;;;25.33;17.87;;;;;;;7.76;100.00;96076.34;5066819;28;20212;-64
2024/01/19 07:21:19;;;;;;;25.20;18.73;;;;;;;8.02;100.00;96088.72;5086730;28;20192;-64
2024/01/19 07:23:46;;;;;;;20.90;14.67;;;;;;;8.21;100.00;96078.31;5085780;28;20314;-64
2024/01/19 07:26:18;;;;;;;19.03;14.60;;;;;;;8.23;100.00;96077.31;5067841;28;20189;-64
2024/01/19 07:28:45;;;;;;;18.57;14.53;;;;;;;8.29;100.00;96091.66;5087277;28;20285;-65
2024/01/19 07:31:12;;;;;;;16.20;12.80;;;;;;;8.46;100.00;96077.88;5066901;28;20197;-63
2024/01/19 07:33:39;;;;;;;13.00;11.07;;;;;;;8.43;100.00;96058.22;5068748;28;20555;-65
2024/01/19 07:36:06;;;;;;;13.00;10.10;;;;;;;8.63;100.00;96086.41;5084800;28;20193;-64
2024/01/19 07:38:34;;;;;;;15.43;10.33;;;;;;;8.68;100.00;96089.56;5086414;28;20267;-66
2024/01/19 07:41:01;;;;;;;11.00;8.83;;;;;;;8.83;100.00;96064.69;5085384;28;20219;-66
2024/01/19 07:43:28;;;;;;;11.50;9.60;;;;;;;8.86;100.00;96042.09;5067947;28;20185;-65
2024/01/19 07:45:55;;;;;;;12.77;9.87;;;;;;;9.11;100.00;96069.97;5086224;28;20224;-63
2024/01/19 07:48:23;;;;;;;14.30;11.37;;;;;;;9.21;100.00;96078.06;5084928;28;20326;-64
2024/01/19 07:50:53;;;;;;;15.93;11.57;;;;;;;9.39;100.00;96079.63;5086203;28;20189;-63
2024/01/19 07:53:20;;;;;;;13.87;11.00;;;;;;;9.49;100.00;96081.59;5084399;28;20208;-62
2024/01/19 07:55:47;;;;;;;13.77;10.90;;;;;;;9.42;100.00;96051.84;5086205;28;20210;-64
2024/01/19 07:58:14;;;;;;;17.40;12.10;;;;;;;9.62;100.00;96074.78;5085354;28;20287;-66
2024/01/19 08:00:41;;;;;;;15.83;11.50;;;;;;;9.69;100.00;96068.34;5085892;28;20712;-65
2024/01/19 08:03:08;;;;;;;12.10;9.83;;;;;;;9.74;100.00;96050.84;5085963;28;20196;-64
2024/01/19 08:05:35;;;;;;;14.37;10.87;;;;;;;9.94;100.00;96043.66;5066266;28;20198;-64
2024/01/19 08:08:03;;;;;;;15.00;10.70;;;;;;;10.06;100.00;96064.44;5085843;28;20316;-66
2024/01/19 08:10:35;;;;;;;19.87;13.57;;;;;;;10.21;99.29;96073.94;5084269;28;20190;-65
2024/01/19 08:13:02;;;;;;;18.63;13.70;;;;;;;10.22;98.39;96059.25;5086161;28;20193;-63
2024/01/19 08:15:29;;;;;;;16.20;12.87;;;;;;;10.28;98.98;96080.38;5066339;28;20547;-63
2024/01/19 08:17:56;;;;;;;18.33;14.43;;;;;;;10.39;99.36;96084.91;5085592;28;20321;-61
2024/01/19 08:20:24;;;;;;;18.50;13.63;;;;;;;10.42;99.14;96082.16;5067709;28;20190;-62
2024/01/19 08:22:55;;;;;;;17.43;13.17;;;;;;;10.44;98.65;96059.59;5084128;28;20733;-63
2024/01/19 08:25:22;;;;;;;16.33;12.67;;;;;;;10.70;98.51;96068.34;5067012;28;20192;-62
2024/01/19 08:27:49;;;;;;;14.47;12.77;;;;;;;10.63;98.14;96067.91;5083481;28;20226;-64
2024/01/19 08:30:16;;;;;;;14.53;12.00;;;;;;;10.72;98.58;96053.53;5085733;28;20211;-65
2024/01/19 08:32:43;;;;;;;15.47;13.07;;;;;;;10.92;97.97;96066.91;5084198;28;20180;-64
2024/01/19 08:35:11;;;;;;;16.53;13.50;;;;;;;10.34;98.04;95992.06;5085204;28;20597;-63
2024/01/19 08:37:39;;;;;;;15.57;11.93;;;;;;;10.92;97.83;96084.25;5085298;28;20234;-64
2024/01/19 08:40:11;;;;;;;12.10;8.63;;;;;;;10.87;96.93;96084.53;5084192;28;20181;-66
2024/01/19 08:42:39;;;;;;;10.10;7.50;;;;;;;11.06;95.54;96090.22;5067099;28;20210;-62
2024/01/19 08:45:07;;;;;;;10.90;7.40;;;;;;;11.16;94.80;96095.66;5083500;28;20202;-65
2024/01/19 08:47:35;;;;;;;11.20;8.33;;;;;;;11.32;93.00;96106.69;5066530;28;20230;-66
2024/01/19 08:50:03;;;;;;;11.80;8.67;;;;;;;10.97;91.99;96051.94;5065705;28;20201;-64
2024/01/19 08:52:30;;;;;;;10.57;8.50;;;;;;;11.41;90.84;96119.94;5067119;28;20308;-64
2024/01/19 08:54:58;;;;;;;8.67;7.30;;;;;;;11.52;90.07;96111.44;5084854;28;20189;-63
2024/01/19 08:57:25;;;;;;;13.03;8.37;;;;;;;11.44;91.09;96117.13;5084629;28;20238;-64
2024/01/19 08:59:52;;;;;;;13.67;8.33;;;;;;;11.61;90.75;96118.66;5086184;28;20203;-64
2024/01/19 09:02:20;;;;;;;9.43;7.07;;;;;;;11.68;89.97;96119.97;5084072;28;20193;-63
2024/01/19 09:04:50;;;;;;;9.60;6.20;;;;;;;11.83;89.82;96126.72;5085618;28;20222;-63
2024/01/19 09:07:18;;;;;;;6.27;5.10;;;;;;;11.91;89.18;96121.84;5087766;28;20231;-63
2024/01/19 09:09:47;;;;;;;9.03;6.00;;;;;;;12.05;88.94;96128.75;5089547;28;20257;-65
2024/01/19 09:12:14;;;;;;;7.37;5.00;;;;;;;12.21;87.38;96130.22;5054195;28;20257;-62
2024/01/19 09:14:41;;;;;;;6.73;4.60;;;;;;;12.18;86.45;96127.00;5088367;28;20204;-65
2024/01/19 09:17:08;;;;;;;6.70;5.17;;;;;;;12.25;87.02;96125.66;5089343;28;20580;-68
2024/01/19 09:19:35;;;;;;;6.63;5.70;;;;;;;12.25;87.54;96125.66;5087381;28;20192;-65
2024/01/19 09:22:06;;;;;;;8.83;6.00;;;;;;;12.30;86.91;96122.75;5089079;28;20200;-64
2024/01/19 09:24:33;;;;;;;9.60;5.17;;;;;;;12.41;85.74;96110.72;5052550;28;20232;-63
2024/01/19 09:27:00;;;;;;;6.30;5.23;;;;;;;12.34;86.80;96103.44;5089038;28;20244;-64
2024/01/19 09:29:27;;;;;;;9.43;5.70;;;;;;;12.38;85.95;96099.72;5088096;28;20206;-66
2024/01/19 09:31:54;;;;;;;6.30;5.70;;;;;;;12.56;86.65;96108.84;5069531;28;20192;-65
2024/01/19 09:34:22;;;;;;;5.87;5.27;;;;;;;12.57;86.46;96111.31;5088873;28;20181;-64
2024/01/19 09:36:50;;;;;;;8.20;5.83;;;;;;;12.52;87.40;96123.81;5087211;28;20274;-61
2024/01/19 09:39:16;;;;;;;8.03;6.10;;;;;;;12.60;86.66;96113.72;5070690;28;20200;-66
2024/01/19 09:41:46;;;;;;;13.03;8.33;;;;;;;12.68;86.66;96114.03;5087306;28;20615;-66
2024/01/19 09:44:17;;;;;;;8.20;6.30;;;;;;;12.68;86.21;96114.03;5088645;28;20187;-65
2024/01/19 09:46:53;;;;;;;10.47;7.00;;;;;;;12.74;84.62;96112.75;5087707;28;20198;-67
2024/01/19 09:49:43;;;;;;;13.57;8.77;;;;;;;12.67;84.12;96116.72;5068862;28;20221;-67
2024/01/19 09:52:28;;;;;;;14.63;9.90;;;;;;;12.58;83.28;96119.94;5073719;28;21237;-63
2024/01/19 09:54:55;;;;;;;12.13;7.70;;;;;;;12.57;83.52;96108.72;5086956;28;20222;-63
2024/01/19 09:57:22;;;;;;;8.73;6.50;;;;;;;12.65;83.45;96119.41;5053038;28;20608;-66
2024/01/19 09:59:49;;;;;;;9.10;6.07;;;;;;;12.69;83.25;96110.50;5069781;28;20211;-64
2024/01/19 10:02:18;;;;;;;7.23;5.27;;;;;;;12.83;83.92;96109.53;5087201;28;20204;-66
2024/01/19 10:04:45;;;;;;;7.00;6.30;;;;;;;13.06;82.96;96104.41;5070048;28;20200;-63
2024/01/19 10:07:57;;;;;;;5.87;4.80;;;;;;;13.27;81.74;96106.47;5081253;28;20722;-64
2024/01/19 10:11:21;;;;;;;6.30;4.17;;;;;;;13.54;79.37;96104.47;5068769;28;20191;-64
2024/01/19 10:14:42;;;;;;;4.93;3.90;;;;;;;13.73;78.27;96099.59;5066724;28;20828;-65
2024/01/19 10:18:03;;;;;;;6.33;4.57;;;;;;;13.93;77.65;96091.13;5081998;28;20319;-65
2024/01/19 10:21:24;;;;;;;6.93;4.40;;;;;;;14.27;76.59;96089.44;5085381;28;20708;-65
2024/01/19 10:24:48;;;;;;;6.67;5.40;;;;;;;14.31;76.42;96090.91;5083694;28;20270;-64
2024/01/19 10:28:18;;;;;;;5.90;4.30;;;;;;;14.24;76.08;96074.88;5085638;28;20228;-64
2024/01/19 10:31:26;;;;;;;7.40;4.80;;;;;;;14.17;76.48;96078.06;5086777;28;20500;-65
2024/01/19 10:33:57;;;;;;;5.90;4.30;;;;;;;14.29;75.12;96072.81;5068339;28;20251;-63
2024/01/19 10:37:05;;;;;;;6.33;3.87;;;;;;;14.41;74.57;96052.78;5086420;28;20260;-64
2024/01/19 10:39:34;;;;;;;12.13;6.93;;;;;;;14.52;73.46;96058.03;5048099;28;20535;-63
2024/01/19 10:42:06;;;;;;;6.63;3.90;;;;;;;14.61;72.46;96044.28;5065527;28;20185;-62
2024/01/19 10:44:34;;;;;;;3.67;3.27;;;;;;;14.67;71.94;96065.47;5066949;28;20225;-62
2024/01/19 10:47:01;;;;;;;4.13;3.40;;;;;;;14.66;72.15;96066.44;5066206;28;20777;-65
2024/01/19 10:49:32;;;;;;;4.50;3.17;;;;;;;14.71;71.50;96052.22;5066475;28;20197;-64
2024/01/19 10:51:59;;;;;;;5.53;3.70;;;;;;;14.84;71.73;96047.72;5067177;28;20197;-64
2024/01/19 10:55:06;;;;;;;5.67;4.43;;;;;;;14.90;71.09;96047.25;5069854;28;20199;-62
2024/01/19 10:58:07;;;;;;;5.53;4.30;;;;;;;14.96;71.17;96057.19;5065936;28;20193;-63
2024/01/19 11:01:33;;;;;;;6.27;3.83;;;;;;;15.10;70.92;96051.69;5075422;28;20204;-62
2024/01/19 11:04:54;;;;;;;6.13;3.83;;;;;;;15.23;70.95;96049.75;5084879;28;20691;-64
2024/01/19 11:08:14;;;;;;;10.83;5.00;;;;;;;15.20;70.70;96047.41;5084289;28;20224;-61
2024/01/19 11:11:35;;;;;;;11.33;6.30;;;;;;;15.09;71.77;96055.25;5067521;28;20190;-67
2024/01/19 11:14:55;;;;;;;10.27;6.30;;;;;;;15.20;71.13;96044.78;5077434;28;20694;-64
2024/01/19 11:17:58;;;;;;;8.13;5.37;;;;;;;15.08;70.51;96030.13;5047034;28;20190;-65
2024/01/19 11:20:25;;;;;;;9.00;6.23;;;;;;;14.82;71.58;96039.19;5065416;28;20209;-62
2024/01/19 11:22:53;;;;;;;9.67;6.17;;;;;;;14.63;72.53;96038.00;5086691;28;20235;-64
2024/01/19 11:25:42;;;;;;;11.10;7.03;;;;;;;14.59;72.94;96039.19;5085260;28;20200;-64
2024/01/19 11:28:18;;;;;;;8.50;5.73;;;;;;;14.73;71.78;96040.72;5085815;28;20278;-64
2024/01/19 11:30:48;;;;;;;8.33;5.07;;;;;;;15.00;71.40;96035.13;5086776;28;20273;-64
2024/01/19 11:33:17;;;;;;;8.47;5.73;;;;;;;15.02;71.69;96035.84;5085000;28;20185;-63
2024/01/19 11:35:49;;;;;;;7.37;5.17;;;;;;;15.27;70.08;96033.75;5068505;28;20690;-65
2024/01/19 11:38:35;;;;;;;7.37;3.97;;;;;;;15.41;68.89;96033.44;5085168;28;20224;-62
2024/01/19 11:41:05;;;;;;;6.33;5.00;;;;;;;15.64;68.31;96031.63;5067943;28;20515;-63